Terminal Aerodrome Forecast
Issued by NWS

Home | Current Version | Previous Version | Text Only | Print | Product List | Glossary On
Versions: 1 2 3 4 5 6 7 8 9 10 11 12 13 14
000
FTUS42 TJSJ 270500 RRA
TAFJSJ
TAF
TJSJ 270545Z 2706/2806 06004KT P6SM VCSH FEW025 SCT035
     FM271300 06013KT P6SM FEW025 FEW035
     FM272200 05006KT P6SM VCSH SCT025 SCT035 SCT050=

USA.gov is the U.S. government's official web portal to all federal, state and local government web resources and services.